Time,TemperatureF,DewpointF,PressureIn,WindDirection,WindDirectionDegrees,WindSpeedMPH,WindSpeedGustMPH,Humidity,HourlyPrecipIn,Conditions,Clouds,dailyrainin,SolarRadiationWatts/m^2,SoftwareType,DateUTC
2013-02-15 00:32:00,44.0,34.0,-100.00,West,275,4.0,6.0,69,-99.99,,,0.00,0.000000,,2013-02-15 05:32:00,
2013-02-15 01:32:00,44.0,35.0,-100.00,SW,219,3.0,6.0,71,-99.99,,,0.00,0.000000,,2013-02-15 06:32:00,
2013-02-15 02:32:00,42.0,34.0,-100.00,WSW,247,4.0,8.0,74,-99.99,,,0.00,0.000000,,2013-02-15 07:32:00,
2013-02-15 03:32:00,42.0,35.0,-100.00,SSW,205,5.0,7.0,77,-99.99,,,0.00,0.000000,,2013-02-15 08:32:00,
2013-02-15 04:32:00,42.0,36.0,-100.00,WSW,242,3.0,7.0,79,-99.99,,,0.00,0.000000,,2013-02-15 09:32:00,
2013-02-15 05:32:00,42.0,36.0,-100.00,SW,230,3.0,6.0,78,-99.99,,,0.00,0.000000,,2013-02-15 10:32:00,
2013-02-15 06:32:00,41.0,35.0,-100.00,SSW,212,4.0,6.0,79,-99.99,,,0.00,0.000000,,2013-02-15 11:32:00,
2013-02-15 07:32:00,42.0,36.0,-100.00,SSW,201,5.0,7.0,80,-99.99,,,0.00,0.000000,,2013-02-15 12:32:00,
2013-02-15 08:32:00,42.0,37.0,-100.00,SSW,194,5.0,8.0,81,-99.99,,,-99.99,33.000000,,2013-02-15 13:32:00,
2013-02-15 09:32:00,45.0,38.0,-100.00,South,169,4.0,8.0,75,-99.99,,,0.00,147.000000,,2013-02-15 14:32:00,
2013-02-15 10:32:00,48.0,40.0,-100.00,SSW,200,4.0,10.0,74,0.00,,,0.00,231.000000,,2013-02-15 15:32:00,
2013-02-15 11:32:00,52.0,41.0,-100.00,West,265,4.0,7.0,65,0.00,,,0.00,285.000000,,2013-02-15 16:32:00,
2013-02-15 11:43:00,52.0,41.0,-100.00,West,265,4.0,7.0,65,0.00,,,0.00,285.000000,,2013-02-15 16:43:00,
2013-02-15 11:52:00,52.0,41.0,-100.00,West,265,4.0,7.0,65,0.00,,,0.00,285.000000,,2013-02-15 16:52:00,
2013-02-15 12:01:00,52.0,41.0,-100.00,West,265,4.0,7.0,65,0.00,,,0.00,285.000000,,2013-02-15 17:01:00,
2013-02-15 12:32:00,56.0,40.0,-100.00,West,266,5.0,10.0,55,0.00,,,0.00,313.000000,,2013-02-15 17:32:00,
2013-02-15 12:42:00,56.0,40.0,-100.00,West,266,5.0,10.0,55,0.00,,,0.00,313.000000,,2013-02-15 17:42:00,
2013-02-15 12:52:00,56.0,40.0,-100.00,West,266,5.0,10.0,55,0.00,,,0.00,313.000000,,2013-02-15 17:52:00,
2013-02-15 13:02:00,56.0,40.0,-100.00,West,266,5.0,10.0,55,0.00,,,0.00,313.000000,,2013-02-15 18:02:00,
2013-02-15 13:32:00,58.0,37.0,-100.00,WSW,241,6.0,13.0,46,0.00,,,0.00,322.000000,,2013-02-15 18:32:00,
2013-02-15 13:42:00,58.0,37.0,-100.00,WSW,241,6.0,13.0,46,0.00,,,0.00,322.000000,,2013-02-15 18:42:00,
2013-02-15 13:53:00,58.0,37.0,-100.00,WSW,241,6.0,13.0,46,0.00,,,0.00,322.000000,,2013-02-15 18:53:00,
2013-02-15 14:02:00,58.0,37.0,-100.00,WSW,241,6.0,13.0,46,0.00,,,0.00,322.000000,,2013-02-15 19:02:00,
2013-02-15 14:32:00,58.0,36.0,-100.00,West,281,7.0,16.0,43,0.00,,,0.00,192.000000,,2013-02-15 19:32:00,
2013-02-15 14:42:00,58.0,36.0,-100.00,West,281,7.0,16.0,43,0.00,,,0.00,192.000000,,2013-02-15 19:42:00,
2013-02-15 14:52:00,58.0,36.0,-100.00,West,281,7.0,16.0,43,0.00,,,0.00,192.000000,,2013-02-15 19:52:00,
2013-02-15 15:02:00,58.0,36.0,-100.00,West,281,7.0,16.0,43,0.00,,,0.00,192.000000,,2013-02-15 20:02:00,
2013-02-15 15:32:00,59.0,37.0,-100.00,West,273,9.0,15.0,43,0.00,,,0.00,155.000000,,2013-02-15 20:32:00,
2013-02-15 15:42:00,59.0,37.0,-100.00,West,273,9.0,15.0,43,0.00,,,0.00,155.000000,,2013-02-15 20:42:00,
2013-02-15 15:52:00,59.0,37.0,-100.00,West,273,9.0,15.0,43,0.00,,,0.00,155.000000,,2013-02-15 20:52:00,
2013-02-15 16:02:00,59.0,37.0,-100.00,West,273,9.0,15.0,43,0.00,,,0.00,155.000000,,2013-02-15 21:02:00,
2013-02-15 16:32:00,54.0,34.0,-100.00,WNW,296,7.0,16.0,46,0.00,,,0.00,148.000000,,2013-02-15 21:32:00,
2013-02-15 16:42:00,54.0,34.0,-100.00,WNW,296,7.0,16.0,46,0.00,,,0.00,148.000000,,2013-02-15 21:42:00,
2013-02-15 16:52:00,54.0,34.0,-100.00,WNW,296,7.0,16.0,46,0.00,,,0.00,148.000000,,2013-02-15 21:52:00,
2013-02-15 17:02:00,54.0,34.0,-100.00,WNW,296,7.0,16.0,46,0.00,,,0.00,148.000000,,2013-02-15 22:02:00,
2013-02-15 17:32:00,53.0,35.0,-100.00,NW,311,7.0,11.0,50,0.00,,,0.00,87.000000,,2013-02-15 22:32:00,
2013-02-15 17:42:00,53.0,35.0,-100.00,NW,311,7.0,11.0,50,0.00,,,0.00,87.000000,,2013-02-15 22:42:00,
2013-02-15 17:52:00,53.0,35.0,-100.00,NW,311,7.0,11.0,50,0.00,,,0.00,87.000000,,2013-02-15 22:52:00,
2013-02-15 18:02:00,53.0,35.0,-100.00,NW,311,7.0,11.0,50,0.00,,,0.00,87.000000,,2013-02-15 23:02:00,
2013-02-15 18:32:00,46.0,35.0,-100.00,NW,305,10.0,15.0,64,0.00,,,0.00,34.000000,,2013-02-15 23:32:00,
2013-02-15 18:42:00,46.0,35.0,-100.00,NW,305,10.0,15.0,64,0.00,,,0.00,34.000000,,2013-02-15 23:42:00,
2013-02-15 18:52:00,46.0,35.0,-100.00,NW,305,10.0,15.0,64,0.00,,,0.00,34.000000,,2013-02-15 23:52:00,
2013-02-15 19:02:00,46.0,35.0,-100.00,NW,305,10.0,15.0,64,0.00,,,0.00,34.000000,,2013-02-16 00:02:00,
2013-02-15 19:32:00,44.0,34.0,-100.00,NW,317,7.0,15.0,67,0.00,,,0.00,0.000000,,2013-02-16 00:32:00,
2013-02-15 19:42:00,44.0,34.0,-100.00,NW,317,7.0,15.0,67,0.00,,,0.00,0.000000,,2013-02-16 00:42:00,
2013-02-15 19:52:00,44.0,34.0,-100.00,NW,317,7.0,15.0,67,0.00,,,0.00,0.000000,,2013-02-16 00:52:00,
2013-02-15 20:02:00,44.0,34.0,-100.00,NW,317,7.0,15.0,67,0.00,,,0.00,0.000000,,2013-02-16 01:02:00,
2013-02-15 20:32:00,44.0,35.0,-100.00,North,349,7.0,14.0,70,0.00,,,0.00,0.000000,,2013-02-16 01:32:00,
2013-02-15 20:42:00,44.0,35.0,-100.00,North,349,7.0,14.0,70,0.00,,,0.00,0.000000,,2013-02-16 01:42:00,
2013-02-15 20:52:00,44.0,35.0,-100.00,North,349,7.0,14.0,70,0.00,,,0.00,0.000000,,2013-02-16 01:52:00,
2013-02-15 21:01:00,44.0,35.0,-100.00,North,349,7.0,14.0,70,0.00,,,0.00,0.000000,,2013-02-16 02:01:00,
2013-02-15 21:32:00,42.0,34.0,-100.00,North,350,9.0,15.0,74,0.00,,,0.00,0.000000,,2013-02-16 02:32:00,
2013-02-15 21:42:00,42.0,34.0,-100.00,North,350,9.0,15.0,74,0.00,,,0.00,0.000000,,2013-02-16 02:42:00,
2013-02-15 21:52:00,42.0,34.0,-100.00,North,350,9.0,15.0,74,0.00,,,0.00,0.000000,,2013-02-16 02:52:00,
2013-02-15 22:02:00,42.0,34.0,-100.00,North,350,9.0,15.0,74,0.00,,,0.00,0.000000,,2013-02-16 03:02:00,
2013-02-15 22:32:00,41.0,31.0,-100.00,North,349,5.0,15.0,67,0.00,,,0.00,0.000000,,2013-02-16 03:32:00,
2013-02-15 22:42:00,41.0,31.0,-100.00,North,349,5.0,15.0,67,0.00,,,0.00,0.000000,,2013-02-16 03:42:00,
2013-02-15 22:52:00,41.0,31.0,-100.00,North,349,5.0,15.0,67,0.00,,,0.00,0.000000,,2013-02-16 03:52:00,
2013-02-15 23:01:00,41.0,31.0,-100.00,North,349,5.0,15.0,67,0.00,,,0.00,0.000000,,2013-02-16 04:01:00,
2013-02-15 23:32:00,40.0,29.0,-100.00,North,350,6.0,12.0,64,0.00,,,0.00,0.000000,,2013-02-16 04:32:00,
2013-02-15 23:42:00,40.0,29.0,-100.00,North,350,6.0,12.0,64,0.00,,,0.00,0.000000,,2013-02-16 04:42:00,
2013-02-15 23:52:00,40.0,29.0,-100.00,North,350,6.0,12.0,64,0.00,,,0.00,0.000000,,2013-02-16 04:52:00,